createdAt,value
2022-09-25T00:00:09.638Z,13.80
2022-09-25T00:02:38.551Z,13.80
2022-09-25T00:05:10.263Z,13.70
2022-09-25T00:07:52.306Z,13.70
2022-09-25T00:10:24.838Z,13.70
2022-09-25T00:12:56.912Z,13.70
2022-09-25T00:15:23.657Z,13.70
2022-09-25T00:17:50.669Z,13.70
2022-09-25T00:20:19.900Z,13.70
2022-09-25T00:22:48.836Z,13.70
2022-09-25T00:25:19.873Z,13.70
2022-09-25T00:27:52.289Z,13.80
2022-09-25T00:30:20.509Z,13.70
2022-09-25T00:36:00.817Z,13.70
2022-09-25T00:38:27.967Z,13.70
2022-09-25T00:40:54.956Z,13.70
2022-09-25T00:43:40.161Z,13.70
2022-09-25T00:46:18.919Z,13.70
2022-09-25T00:48:59.793Z,13.70
2022-09-25T00:51:40.983Z,13.80
2022-09-25T00:54:41.796Z,13.80
2022-09-25T00:57:19.030Z,13.70
2022-09-25T00:59:52.916Z,13.70
2022-09-25T01:02:28.929Z,13.70
2022-09-25T01:05:02.809Z,13.70
2022-09-25T01:07:36.125Z,13.70
2022-09-25T01:10:07.649Z,13.70
2022-09-25T01:12:43.533Z,13.70
2022-09-25T01:15:17.808Z,13.70
2022-09-25T01:17:55.827Z,13.80
2022-09-25T01:21:01.149Z,13.80
2022-09-25T01:23:47.946Z,13.80
2022-09-25T01:26:43.206Z,13.80
2022-09-25T01:29:23.818Z,13.80
2022-09-25T01:32:02.426Z,13.80
2022-09-25T01:34:42.301Z,13.80
2022-09-25T01:37:15.044Z,13.80
2022-09-25T01:40:07.012Z,13.80
2022-09-25T01:42:51.310Z,13.80
2022-09-25T01:45:32.316Z,13.80
2022-09-25T01:48:00.860Z,13.80
2022-09-25T01:50:40.378Z,13.80
2022-09-25T01:53:12.961Z,13.80
2022-09-25T01:55:54.654Z,13.80
2022-09-25T01:58:33.615Z,13.80
2022-09-25T02:01:32.248Z,13.80
2022-09-25T02:04:11.049Z,13.80
2022-09-25T02:06:47.999Z,13.70
2022-09-25T02:09:37.742Z,13.70
2022-09-25T02:12:12.281Z,13.70
2022-09-25T02:14:51.958Z,13.70
2022-09-25T02:18:20.038Z,13.70
2022-09-25T02:20:57.415Z,13.70
2022-09-25T02:23:39.118Z,13.70
2022-09-25T02:26:13.991Z,13.70
2022-09-25T02:28:43.001Z,13.70
2022-09-25T02:31:16.014Z,13.70
2022-09-25T02:33:43.833Z,13.80
2022-09-25T02:36:22.486Z,13.80
2022-09-25T02:38:51.269Z,13.80
2022-09-25T02:41:47.437Z,13.80
2022-09-25T02:44:33.925Z,13.80
2022-09-25T02:55:54.236Z,13.70
2022-09-25T02:58:41.787Z,13.70
2022-09-25T03:01:11.922Z,13.70
2022-09-25T03:03:40.245Z,13.70
2022-09-25T03:06:10.743Z,13.70
2022-09-25T03:08:47.684Z,13.70
2022-09-25T03:11:22.501Z,13.70
2022-09-25T03:14:07.619Z,13.70
2022-09-25T03:16:45.693Z,13.60
2022-09-25T03:19:28.834Z,13.70
2022-09-25T03:22:06.132Z,13.70
2022-09-25T03:24:40.106Z,13.70
2022-09-25T03:27:10.273Z,13.60
2022-09-25T03:29:46.586Z,13.60
2022-09-25T03:32:24.223Z,13.60
2022-09-25T03:34:51.647Z,13.60
2022-09-25T03:37:18.285Z,13.60
2022-09-25T03:39:46.572Z,13.60
2022-09-25T03:42:13.589Z,13.50
2022-09-25T03:44:40.208Z,13.60
2022-09-25T03:47:06.817Z,13.60
2022-09-25T03:49:33.581Z,13.60
2022-09-25T03:52:00.316Z,13.60
2022-09-25T03:54:26.875Z,13.60
2022-09-25T03:56:53.860Z,13.60
2022-09-25T03:59:20.455Z,13.60
2022-09-25T04:01:47.083Z,13.60
2022-09-25T04:04:13.945Z,13.60
2022-09-25T04:06:40.478Z,13.60
2022-09-25T04:09:07.189Z,13.60
2022-09-25T04:11:36.300Z,13.60
2022-09-25T04:14:07.167Z,13.50
2022-09-25T04:16:36.264Z,13.50
2022-09-25T04:19:03.013Z,13.50
2022-09-25T04:21:32.322Z,13.50
2022-09-25T04:24:20.681Z,13.50
2022-09-25T04:26:52.981Z,13.50
2022-09-25T04:29:20.517Z,13.40
2022-09-25T04:32:10.262Z,13.50
2022-09-25T04:34:37.071Z,13.40
2022-09-25T04:37:04.761Z,13.40
2022-09-25T04:39:31.354Z,13.50
2022-09-25T04:42:00.216Z,13.50
2022-09-25T04:44:28.247Z,13.40
2022-09-25T04:46:57.434Z,13.40
2022-09-25T04:49:24.056Z,13.40
2022-09-25T04:51:52.987Z,13.40
2022-09-25T04:54:19.891Z,13.30
2022-09-25T04:56:46.521Z,13.40
2022-09-25T04:59:18.094Z,13.40
2022-09-25T05:07:58.286Z,13.40
2022-09-25T05:10:28.289Z,13.50
2022-09-25T05:13:00.123Z,13.50
2022-09-25T05:15:28.407Z,13.50
2022-09-25T05:18:06.906Z,13.50
2022-09-25T05:20:49.307Z,13.60
2022-09-25T05:23:16.595Z,13.60
2022-09-25T05:25:50.415Z,13.60
2022-09-25T05:28:25.532Z,13.70
2022-09-25T05:30:52.178Z,13.70
2022-09-25T05:33:19.050Z,13.60
2022-09-25T05:35:47.830Z,13.70
2022-09-25T05:38:14.743Z,13.70
2022-09-25T05:40:41.387Z,13.70
2022-09-25T05:43:08.230Z,13.70
2022-09-25T05:45:35.183Z,13.60
2022-09-25T05:48:04.166Z,13.60
2022-09-25T05:50:31.768Z,13.60
2022-09-25T05:53:11.130Z,13.60
2022-09-25T05:56:04.509Z,13.60
2022-09-25T05:58:34.820Z,13.60
2022-09-25T06:01:03.478Z,13.60
2022-09-25T06:03:31.039Z,13.60
2022-09-25T06:05:58.976Z,13.60
2022-09-25T06:08:26.466Z,13.60
2022-09-25T06:10:53.965Z,13.60
2022-09-25T06:13:24.726Z,13.60
2022-09-25T06:15:54.254Z,13.60
2022-09-25T06:18:23.532Z,13.60
2022-09-25T06:20:51.087Z,13.60
2022-09-25T06:23:18.490Z,13.60
2022-09-25T06:25:45.421Z,13.60
2022-09-25T06:28:14.728Z,13.60
2022-09-25T06:30:41.529Z,13.60
2022-09-25T06:33:13.360Z,13.60
2022-09-25T06:35:44.746Z,13.60
2022-09-25T06:38:12.122Z,13.60
2022-09-25T06:40:39.632Z,13.60
2022-09-25T06:43:12.213Z,13.60
2022-09-25T06:45:48.113Z,13.50
2022-09-25T06:48:17.848Z,13.50
2022-09-25T06:50:55.231Z,13.50
2022-09-25T06:53:23.446Z,13.50
2022-09-25T06:55:56.786Z,13.50
2022-09-25T06:58:24.789Z,13.50
2022-09-25T07:00:55.876Z,13.50
2022-09-25T07:03:43.732Z,13.50
2022-09-25T07:06:22.849Z,13.50
2022-09-25T07:08:50.413Z,13.50
2022-09-25T07:11:24.656Z,13.50
2022-09-25T07:13:54.539Z,13.60
2022-09-25T07:16:24.195Z,13.60
2022-09-25T07:18:59.584Z,13.60
2022-09-25T07:33:11.788Z,13.70
2022-09-25T07:35:40.834Z,13.70
2022-09-25T07:38:07.506Z,13.70
2022-09-25T07:40:39.692Z,13.70
2022-09-25T07:43:06.553Z,13.70
2022-09-25T07:45:36.133Z,13.70
2022-09-25T07:48:03.942Z,13.70
2022-09-25T07:50:37.469Z,13.80
2022-09-25T07:53:06.579Z,13.80
2022-09-25T07:55:33.743Z,13.80
2022-09-25T07:58:03.021Z,13.80
2022-09-25T08:00:29.629Z,13.80
2022-09-25T08:03:01.615Z,13.80
2022-09-25T08:05:28.521Z,13.80
2022-09-25T08:07:55.346Z,13.80
2022-09-25T08:10:27.776Z,13.90
2022-09-25T08:12:54.402Z,13.80
2022-09-25T08:15:21.376Z,13.90
2022-09-25T08:17:54.715Z,13.80
2022-09-25T08:20:21.485Z,13.90
2022-09-25T08:22:48.085Z,13.90
2022-09-25T08:25:16.405Z,13.90
2022-09-25T08:27:45.744Z,13.90
2022-09-25T08:30:13.176Z,13.90
2022-09-25T08:32:40.208Z,13.90
2022-09-25T08:35:09.513Z,13.90
2022-09-25T08:37:49.182Z,13.90
2022-09-25T08:40:18.399Z,13.90
2022-09-25T08:42:54.351Z,13.90
2022-09-25T08:45:52.099Z,14.00
2022-09-25T08:48:46.018Z,14.00
2022-09-25T08:51:13.021Z,14.00
2022-09-25T08:53:40.413Z,14.00
2022-09-25T08:56:19.352Z,14.00
2022-09-25T08:59:06.573Z,13.90
2022-09-25T09:01:49.165Z,13.90
2022-09-25T09:04:31.222Z,13.90
2022-09-25T09:07:26.347Z,13.90
2022-09-25T09:10:00.343Z,13.90
2022-09-25T09:12:30.308Z,13.90
2022-09-25T09:15:25.339Z,13.90
2022-09-25T09:17:54.091Z,13.90
2022-09-25T09:20:33.946Z,13.90
2022-09-25T09:23:01.429Z,13.90
2022-09-25T09:25:41.352Z,14.00
2022-09-25T09:28:17.246Z,14.00
2022-09-25T09:31:07.630Z,14.00
2022-09-25T09:33:52.819Z,14.00
2022-09-25T09:36:26.248Z,14.00
2022-09-25T09:39:23.578Z,14.00
2022-09-25T09:41:55.347Z,14.00
2022-09-25T09:44:50.585Z,14.00
2022-09-25T09:47:21.864Z,14.00
2022-09-25T09:50:00.462Z,14.00
2022-09-25T09:52:41.389Z,14.00
2022-09-25T09:55:31.964Z,14.00
2022-09-25T09:58:19.171Z,14.00
2022-09-25T10:00:51.729Z,14.00
2022-09-25T10:03:21.880Z,14.00
2022-09-25T10:05:52.547Z,14.10
2022-09-25T10:08:24.407Z,14.10
2022-09-25T10:10:57.052Z,14.20
2022-09-25T10:13:32.766Z,14.20
2022-09-25T10:16:24.065Z,14.20
2022-09-25T10:19:10.149Z,14.20
2022-09-25T10:21:47.119Z,14.30
2022-09-25T10:24:49.082Z,14.40
2022-09-25T10:27:39.829Z,14.40
2022-09-25T10:30:12.392Z,14.50
2022-09-25T10:33:02.147Z,14.50
2022-09-25T10:35:29.208Z,14.60
2022-09-25T10:38:00.101Z,14.60
2022-09-25T10:40:38.525Z,14.60
2022-09-25T10:43:19.861Z,14.60
2022-09-25T10:45:48.512Z,14.60
2022-09-25T10:48:47.497Z,14.60
2022-09-25T10:51:19.163Z,14.60
2022-09-25T10:53:47.946Z,14.70
2022-09-25T10:56:28.464Z,14.80
2022-09-25T10:59:02.374Z,14.80
2022-09-25T11:01:38.759Z,14.90
2022-09-25T11:04:31.430Z,14.90
2022-09-25T11:07:07.096Z,14.90
2022-09-25T11:09:37.850Z,14.90
2022-09-25T11:12:19.173Z,14.90
2022-09-25T11:15:00.743Z,14.90
2022-09-25T11:17:51.856Z,15.00
2022-09-25T11:20:31.582Z,15.00
2022-09-25T11:23:08.737Z,15.10
2022-09-25T11:25:46.213Z,15.10
2022-09-25T11:28:34.390Z,15.10
2022-09-25T11:31:05.563Z,15.20
2022-09-25T11:33:50.095Z,15.20
2022-09-25T11:36:19.615Z,15.10
2022-09-25T11:39:14.022Z,15.10
2022-09-25T11:41:48.687Z,15.10
2022-09-25T11:44:34.404Z,15.20
2022-09-25T11:47:18.062Z,15.30
2022-09-25T11:49:51.273Z,15.30
2022-09-25T11:52:39.269Z,15.30
2022-09-25T11:55:45.103Z,15.40
2022-09-25T11:58:49.641Z,15.40
2022-09-25T12:01:36.056Z,15.40
2022-09-25T12:04:31.777Z,15.50
2022-09-25T12:07:24.980Z,15.40
2022-09-25T12:10:19.442Z,15.30
2022-09-25T12:12:58.693Z,15.10
2022-09-25T12:15:41.677Z,15.20
2022-09-25T12:18:17.581Z,15.10
2022-09-25T12:21:11.915Z,15.20
2022-09-25T12:24:20.172Z,15.30
2022-09-25T12:27:24.569Z,15.40
2022-09-25T12:30:11.165Z,15.40
2022-09-25T12:32:56.512Z,15.50
2022-09-25T12:35:44.938Z,15.60
2022-09-25T12:38:12.995Z,15.70
2022-09-25T12:41:10.343Z,15.90
2022-09-25T12:44:04.459Z,16.00
2022-09-25T12:46:46.482Z,16.00
2022-09-25T12:49:17.223Z,16.00
2022-09-25T12:51:50.098Z,16.10
2022-09-25T12:54:34.918Z,16.20
2022-09-25T12:57:08.565Z,16.30
2022-09-25T12:59:56.820Z,16.50
2022-09-25T13:02:52.347Z,16.50
2022-09-25T13:05:27.939Z,16.50
2022-09-25T13:08:20.648Z,16.50
2022-09-25T13:10:54.526Z,16.40
2022-09-25T13:13:30.525Z,16.40
2022-09-25T13:16:00.426Z,16.40
2022-09-25T13:18:33.201Z,16.30
2022-09-25T13:21:39.359Z,16.30
2022-09-25T13:24:17.483Z,16.20
2022-09-25T13:26:52.890Z,16.10
2022-09-25T13:29:31.119Z,16.10
2022-09-25T13:32:46.984Z,16.20
2022-09-25T13:35:19.556Z,16.30
2022-09-25T13:37:53.197Z,16.50
2022-09-25T13:40:42.173Z,16.60
2022-09-25T13:43:25.124Z,16.90
2022-09-25T13:46:14.247Z,17.20
2022-09-25T13:48:50.507Z,17.30
2022-09-25T13:51:17.953Z,17.40
2022-09-25T13:54:25.876Z,17.30
2022-09-25T13:56:54.254Z,17.20
2022-09-25T13:59:23.627Z,17.10
2022-09-25T14:01:55.313Z,17.00
2022-09-25T14:04:35.133Z,16.90
2022-09-25T14:07:04.978Z,16.80
2022-09-25T14:09:35.141Z,16.80
2022-09-25T14:12:03.536Z,16.80
2022-09-25T14:14:42.104Z,16.70
2022-09-25T14:17:15.477Z,16.80
2022-09-25T14:19:55.282Z,16.70
2022-09-25T14:22:32.711Z,16.70
2022-09-25T14:25:01.271Z,16.70
2022-09-25T14:27:32.802Z,16.70
2022-09-25T14:30:13.253Z,16.70
2022-09-25T14:33:02.497Z,16.70
2022-09-25T14:35:44.811Z,16.70
2022-09-25T14:38:23.029Z,16.60
2022-09-25T14:41:29.107Z,16.60
2022-09-25T14:44:32.858Z,16.70
2022-09-25T14:47:02.453Z,16.70
2022-09-25T14:49:37.082Z,16.80
2022-09-25T14:52:14.975Z,16.80
2022-09-25T14:54:45.638Z,16.90
2022-09-25T14:57:16.209Z,16.90
2022-09-25T14:59:50.024Z,16.80
2022-09-25T15:02:24.730Z,16.80
2022-09-25T15:05:00.153Z,16.70
2022-09-25T15:07:27.220Z,16.70
2022-09-25T15:09:55.570Z,16.70
2022-09-25T15:12:35.596Z,16.60
2022-09-25T15:15:13.693Z,16.50
2022-09-25T15:18:06.674Z,16.50
2022-09-25T15:20:34.892Z,16.30
2022-09-25T15:23:17.536Z,16.20
2022-09-25T15:26:00.838Z,16.10
2022-09-25T15:28:39.439Z,16.00
2022-09-25T15:31:06.519Z,15.90
2022-09-25T15:33:36.506Z,15.90
2022-09-25T15:36:15.156Z,15.80
2022-09-25T15:38:50.832Z,15.70
2022-09-25T15:41:23.087Z,15.70
2022-09-25T15:43:53.229Z,15.60
2022-09-25T15:46:51.305Z,15.50
2022-09-25T15:52:21.095Z,15.40
2022-09-25T15:54:48.456Z,15.30
2022-09-25T15:58:04.395Z,15.30
2022-09-25T16:00:49.838Z,15.30
2022-09-25T16:09:37.217Z,15.00
2022-09-25T16:12:19.149Z,15.00
2022-09-25T16:14:49.781Z,14.80
2022-09-25T16:17:23.766Z,14.70
2022-09-25T16:20:26.479Z,14.60
2022-09-25T16:23:04.024Z,14.50
2022-09-25T16:25:38.775Z,14.30
2022-09-25T16:28:19.163Z,14.20
2022-09-25T16:30:54.353Z,14.20
2022-09-25T16:33:28.860Z,14.10
2022-09-25T16:36:17.743Z,14.10
2022-09-25T16:39:03.192Z,14.00
2022-09-25T16:41:30.289Z,13.90
2022-09-25T16:49:56.167Z,14.00
2022-09-25T16:52:31.377Z,14.00
2022-09-25T16:54:59.194Z,14.00
2022-09-25T16:57:28.584Z,13.90
2022-09-25T16:59:55.815Z,13.90
2022-09-25T17:02:43.371Z,13.90
2022-09-25T17:05:22.441Z,13.90
2022-09-25T17:07:57.925Z,13.90
2022-09-25T17:10:31.087Z,13.90
2022-09-25T17:13:03.587Z,13.80
2022-09-25T17:15:35.049Z,13.80
2022-09-25T17:18:06.256Z,13.80
2022-09-25T17:20:34.378Z,13.70
2022-09-25T17:23:01.307Z,13.70
2022-09-25T17:25:44.168Z,13.70
2022-09-25T17:28:11.176Z,13.80
2022-09-25T17:30:39.018Z,13.80
2022-09-25T17:33:11.730Z,13.70
2022-09-25T17:35:50.166Z,13.70
2022-09-25T17:38:19.502Z,13.70
2022-09-25T17:40:51.506Z,13.70
2022-09-25T17:43:18.915Z,13.70
2022-09-25T17:45:52.132Z,13.80
2022-09-25T17:48:23.731Z,13.80
2022-09-25T17:50:58.581Z,13.80
2022-09-25T17:53:28.861Z,13.80
2022-09-25T17:56:00.277Z,13.80
2022-09-25T17:58:31.250Z,13.80
2022-09-25T18:01:23.246Z,13.80
2022-09-25T18:03:55.193Z,13.80
2022-09-25T18:06:28.605Z,13.80
2022-09-25T18:08:56.076Z,13.80
2022-09-25T18:11:24.762Z,13.80
2022-09-25T18:13:53.383Z,13.80
2022-09-25T18:16:28.041Z,13.80
2022-09-25T18:19:14.330Z,13.80
2022-09-25T18:21:59.497Z,13.80
2022-09-25T18:24:26.298Z,13.80
2022-09-25T18:26:54.671Z,13.80
2022-09-25T18:29:21.494Z,13.80
2022-09-25T18:31:48.338Z,13.80
2022-09-25T18:34:16.247Z,13.80
2022-09-25T18:36:43.108Z,13.80
2022-09-25T18:39:19.779Z,13.80
2022-09-25T18:41:50.037Z,13.80
2022-09-25T18:44:17.122Z,13.80
2022-09-25T18:46:43.831Z,13.80
2022-09-25T18:49:10.625Z,13.80
2022-09-25T18:51:38.563Z,13.70
2022-09-25T18:54:16.433Z,13.70
2022-09-25T18:56:43.229Z,13.70
2022-09-25T18:59:09.849Z,13.70
2022-09-25T19:01:37.438Z,13.70
2022-09-25T19:04:05.058Z,13.70
2022-09-25T19:06:37.592Z,13.60
2022-09-25T19:09:16.135Z,13.60
2022-09-25T19:11:44.502Z,13.60
2022-09-25T19:14:14.603Z,13.60
2022-09-25T19:16:41.756Z,13.60
2022-09-25T19:19:11.285Z,13.60
2022-09-25T19:21:47.864Z,13.60
2022-09-25T19:24:17.446Z,13.60
2022-09-25T19:26:44.176Z,13.60
2022-09-25T19:29:15.974Z,13.60
2022-09-25T19:31:44.313Z,13.60
2022-09-25T19:34:11.249Z,13.60
2022-09-25T19:36:38.103Z,13.60
2022-09-25T19:39:07.195Z,13.60
2022-09-25T19:41:35.443Z,13.60
2022-09-25T19:44:12.173Z,13.60
2022-09-25T19:46:44.379Z,13.50
2022-09-25T19:49:27.472Z,13.50
2022-09-25T19:52:00.542Z,13.50
2022-09-25T19:54:27.458Z,13.50
2022-09-25T19:56:54.298Z,13.50
2022-09-25T19:59:21.151Z,13.50
2022-09-25T20:01:47.840Z,13.50
2022-09-25T20:04:19.062Z,13.50
2022-09-25T20:06:49.126Z,13.50
2022-09-25T20:09:16.310Z,13.60
2022-09-25T20:11:43.057Z,13.50
2022-09-25T20:14:10.103Z,13.50
2022-09-25T20:16:39.457Z,13.50
2022-09-25T20:19:07.690Z,13.40
2022-09-25T20:21:40.897Z,13.30
2022-09-25T20:24:09.835Z,13.20
2022-09-25T20:26:37.112Z,13.20
2022-09-25T20:29:09.944Z,13.10
2022-09-25T20:31:39.505Z,13.10
2022-09-25T20:37:09.844Z,13.10
2022-09-25T20:40:03.545Z,13.20
2022-09-25T20:42:30.191Z,13.20
2022-09-25T20:44:58.964Z,13.20
2022-09-25T20:47:29.440Z,13.20
2022-09-25T20:49:56.570Z,13.20
2022-09-25T20:52:23.175Z,13.20
2022-09-25T20:54:55.696Z,13.20
2022-09-25T20:57:24.843Z,13.20
2022-09-25T20:59:51.588Z,13.20
2022-09-25T21:02:18.422Z,13.20
2022-09-25T21:04:45.074Z,13.10
2022-09-25T21:07:16.602Z,13.10
2022-09-25T21:09:44.863Z,13.00
2022-09-25T21:12:14.078Z,13.00
2022-09-25T21:14:43.873Z,13.00
2022-09-25T21:17:10.539Z,12.90
2022-09-25T21:19:37.817Z,12.90
2022-09-25T21:22:04.488Z,12.90
2022-09-25T21:27:25.480Z,12.80
2022-09-25T21:29:52.082Z,12.80
2022-09-25T21:35:17.500Z,12.80
2022-09-25T21:37:44.054Z,12.80
2022-09-25T21:40:11.082Z,12.80
2022-09-25T21:42:37.823Z,12.80
2022-09-25T21:45:07.449Z,12.80
2022-09-25T21:47:35.114Z,12.90
2022-09-25T21:50:08.482Z,12.90
2022-09-25T21:52:38.436Z,12.90
2022-09-25T21:55:07.104Z,12.90
2022-09-25T21:57:41.918Z,13.00
2022-09-25T22:00:11.278Z,12.90
2022-09-25T22:02:38.854Z,12.90
2022-09-25T22:05:07.923Z,12.90
2022-09-25T22:07:46.829Z,12.80
2022-09-25T22:10:13.587Z,12.80
2022-09-25T22:12:40.164Z,12.80
2022-09-25T22:15:08.002Z,12.80
2022-09-25T22:17:34.756Z,12.90
2022-09-25T22:20:05.063Z,12.90
2022-09-25T22:22:36.880Z,12.90
2022-09-25T22:25:06.297Z,12.90
2022-09-25T22:27:37.595Z,12.90
2022-09-25T22:30:04.743Z,12.90
2022-09-25T22:32:31.919Z,12.80
2022-09-25T22:35:03.069Z,12.80
2022-09-25T22:37:30.783Z,12.80
2022-09-25T22:39:59.888Z,12.70
2022-09-25T22:42:30.052Z,12.60
2022-09-25T22:44:56.513Z,12.60
2022-09-25T22:47:24.390Z,12.60
2022-09-25T22:50:19.935Z,12.60
2022-09-25T22:52:54.134Z,12.60
2022-09-25T22:55:25.341Z,12.60
2022-09-25T22:58:20.844Z,12.50
2022-09-25T23:00:51.655Z,12.50
2022-09-25T23:03:21.781Z,12.50
2022-09-25T23:05:53.116Z,12.50
2022-09-25T23:08:21.857Z,12.50
2022-09-25T23:11:06.748Z,12.40
2022-09-25T23:13:35.609Z,12.40
2022-09-25T23:16:06.701Z,12.30
2022-09-25T23:18:40.084Z,12.30
2022-09-25T23:21:06.745Z,12.30
2022-09-25T23:23:33.349Z,12.30
2022-09-25T23:26:02.635Z,12.30
2022-09-25T23:28:34.126Z,12.20
2022-09-25T23:31:19.686Z,12.20
2022-09-25T23:33:47.098Z,12.20
2022-09-25T23:36:16.954Z,12.10
2022-09-25T23:38:46.801Z,12.10
2022-09-25T23:41:22.781Z,12.00
2022-09-25T23:43:50.873Z,12.00
2022-09-25T23:49:45.305Z,11.90
2022-09-25T23:52:18.166Z,11.90
2022-09-25T23:54:47.842Z,11.80
2022-09-25T23:57:14.492Z,11.80
2022-09-25T23:59:44.663Z,11.70
